createdAt,value
2017-09-19T00:00:50.537Z,97062.10
2017-09-19T00:03:18.095Z,97063.75
2017-09-19T00:05:45.725Z,97069.19
2017-09-19T00:08:13.298Z,97070.88
2017-09-19T00:10:40.910Z,97071.16
2017-09-19T00:13:08.472Z,97071.91
2017-09-19T00:15:36.445Z,97073.58
2017-09-19T00:18:03.985Z,97069.33
2017-09-19T00:20:31.514Z,97069.28
2017-09-19T00:22:59.063Z,97066.80
2017-09-19T00:25:26.641Z,97057.55
2017-09-19T00:27:54.229Z,97064.66
2017-09-19T00:30:22.863Z,97055.32
2017-09-19T00:32:50.822Z,97062.37
2017-09-19T00:35:18.477Z,97064.97
2017-09-19T00:37:46.017Z,97065.33
2017-09-19T00:40:13.577Z,97064.95
2017-09-19T00:42:41.147Z,97062.85
2017-09-19T00:45:08.751Z,97060.30
2017-09-19T00:47:36.305Z,97055.27
2017-09-19T00:50:04.219Z,97058.58
2017-09-19T00:52:31.763Z,97057.72
2017-09-19T00:54:59.308Z,97050.46
2017-09-19T00:57:26.996Z,97046.99
2017-09-19T00:59:54.530Z,97048.55
2017-09-19T01:02:22.474Z,97051.59
2017-09-19T01:04:50.022Z,97053.23
2017-09-19T01:07:17.553Z,97045.24
2017-09-19T01:09:45.131Z,97049.06
2017-09-19T01:12:12.686Z,97049.09
2017-09-19T01:14:40.616Z,97045.30
2017-09-19T01:17:08.336Z,97047.88
2017-09-19T01:19:35.917Z,97049.14
2017-09-19T01:22:03.503Z,97041.98
2017-09-19T01:24:31.160Z,97041.98
2017-09-19T01:26:58.736Z,97039.89
2017-09-19T01:29:26.305Z,97039.87
2017-09-19T01:31:54.179Z,97030.97
2017-09-19T01:34:21.732Z,97028.06
2017-09-19T01:36:49.262Z,97036.00
2017-09-19T01:39:16.856Z,97033.06
2017-09-19T01:41:44.441Z,97026.75
2017-09-19T01:44:12.149Z,97026.20
2017-09-19T01:46:39.690Z,97026.58
2017-09-19T01:49:07.592Z,97026.61
2017-09-19T01:51:35.132Z,97025.77
2017-09-19T01:54:02.722Z,97031.66
2017-09-19T01:56:30.266Z,97034.59
2017-09-19T01:58:57.814Z,97030.78
2017-09-19T02:01:25.380Z,97027.87
2017-09-19T02:03:52.970Z,97032.03
2017-09-19T02:06:20.937Z,97028.65
2017-09-19T02:08:48.537Z,97020.20
2017-09-19T02:11:16.083Z,97021.09
2017-09-19T02:13:43.750Z,97023.63
2017-09-19T02:16:11.303Z,97011.77
2017-09-19T02:18:38.874Z,97022.77
2017-09-19T02:21:06.417Z,97014.00
2017-09-19T02:23:34.366Z,97020.81
2017-09-19T02:26:01.925Z,97016.88
2017-09-19T02:28:29.482Z,97011.42
2017-09-19T02:30:57.058Z,97017.42
2017-09-19T02:33:24.609Z,97009.92
2017-09-19T02:35:52.201Z,97007.84
2017-09-19T02:38:19.781Z,97006.20
2017-09-19T02:40:47.779Z,97005.40
2017-09-19T02:43:15.667Z,97008.76
2017-09-19T02:45:43.208Z,97006.63
2017-09-19T02:48:10.841Z,97003.70
2017-09-19T02:50:38.939Z,97002.49
2017-09-19T02:53:06.487Z,97004.97
2017-09-19T02:55:34.064Z,97000.34
2017-09-19T02:58:01.927Z,96996.52
2017-09-19T03:00:29.482Z,97006.20
2017-09-19T03:02:57.022Z,97001.60
2017-09-19T03:05:24.582Z,97002.03
2017-09-19T03:07:52.125Z,97002.48
2017-09-19T03:10:20.029Z,97001.70
2017-09-19T03:12:47.575Z,97003.75
2017-09-19T03:15:15.121Z,97004.84
2017-09-19T03:17:42.679Z,97001.27
2017-09-19T03:20:10.215Z,97003.22
2017-09-19T03:22:37.745Z,96997.20
2017-09-19T03:25:05.322Z,97004.33
2017-09-19T03:27:32.864Z,97004.76
2017-09-19T03:30:00.800Z,97006.45
2017-09-19T03:32:28.350Z,97012.90
2017-09-19T03:34:55.899Z,97011.80
2017-09-19T03:37:23.482Z,97013.66
2017-09-19T03:39:52.273Z,97014.83
2017-09-19T03:44:53.856Z,97016.61
2017-09-19T03:47:21.682Z,97013.28
2017-09-19T03:49:49.243Z,97019.24
2017-09-19T03:52:16.927Z,97018.47
2017-09-19T03:54:44.503Z,97025.19
2017-09-19T03:57:12.061Z,97026.42
2017-09-19T03:59:39.926Z,97027.23
2017-09-19T04:02:07.489Z,97028.92
2017-09-19T04:04:35.028Z,97029.41
2017-09-19T04:07:02.624Z,97030.75
2017-09-19T04:09:30.194Z,97028.24
2017-09-19T04:11:58.142Z,97021.98
2017-09-19T04:14:25.678Z,97027.52
2017-09-19T04:16:53.281Z,97024.61
2017-09-19T04:19:20.874Z,97020.86
2017-09-19T04:21:48.437Z,97019.25
2017-09-19T04:24:16.359Z,97020.13
2017-09-19T04:26:43.937Z,97023.91
2017-09-19T04:29:11.492Z,97021.80
2017-09-19T04:31:39.100Z,97017.58
2017-09-19T04:34:06.644Z,97016.22
2017-09-19T04:36:34.663Z,97022.46
2017-09-19T04:39:02.240Z,97024.94
2017-09-19T04:41:29.799Z,97023.30
2017-09-19T04:43:57.385Z,97025.44
2017-09-19T04:46:24.941Z,97018.29
2017-09-19T04:48:52.881Z,97020.03
2017-09-19T04:51:20.481Z,97019.20
2017-09-19T04:53:48.035Z,97020.86
2017-09-19T04:56:15.724Z,97017.33
2017-09-19T04:58:43.276Z,97023.89
2017-09-19T05:01:11.210Z,97018.46
2017-09-19T05:06:13.180Z,97021.95
2017-09-19T05:08:40.749Z,97028.75
2017-09-19T05:11:08.297Z,97031.36
2017-09-19T05:13:36.001Z,97031.46
2017-09-19T05:16:03.571Z,97033.23
2017-09-19T05:18:36.536Z,97033.69
2017-09-19T05:21:04.259Z,97036.64
2017-09-19T05:23:31.810Z,97028.30
2017-09-19T05:25:59.662Z,97027.51
2017-09-19T05:28:27.218Z,97027.16
2017-09-19T05:30:54.774Z,97027.61
2017-09-19T05:33:22.359Z,97029.76
2017-09-19T05:35:49.918Z,97027.25
2017-09-19T05:38:17.880Z,97027.33
2017-09-19T05:40:46.507Z,97033.69
2017-09-19T05:43:14.079Z,97027.42
2017-09-19T05:45:42.788Z,97032.09
2017-09-19T05:48:10.329Z,97032.95
2017-09-19T05:50:38.546Z,97037.61
2017-09-19T05:53:06.096Z,97030.92
2017-09-19T05:55:33.656Z,97033.12
2017-09-19T05:58:01.394Z,97022.63
2017-09-19T06:00:28.966Z,97029.44
2017-09-19T06:02:56.864Z,97015.56
2017-09-19T06:05:24.419Z,97013.09
2017-09-19T06:07:51.970Z,97014.84
2017-09-19T06:10:19.873Z,97010.66
2017-09-19T06:12:47.426Z,97016.12
2017-09-19T06:15:14.993Z,97013.14
2017-09-19T06:17:42.557Z,97019.06
2017-09-19T06:20:10.132Z,97019.08
2017-09-19T06:22:38.190Z,97021.70
2017-09-19T06:25:05.697Z,97023.05
2017-09-19T06:27:33.588Z,97023.95
2017-09-19T06:30:02.103Z,97030.70
2017-09-19T06:32:30.244Z,97027.80
2017-09-19T06:34:57.870Z,97033.77
2017-09-19T06:37:25.776Z,97045.23
2017-09-19T06:39:53.336Z,97046.17
2017-09-19T06:42:20.951Z,97053.41
2017-09-19T06:44:48.534Z,97059.28
2017-09-19T06:47:16.087Z,97064.34
2017-09-19T06:49:43.995Z,97057.22
2017-09-19T06:52:11.549Z,97063.62
2017-09-19T06:54:39.115Z,97062.36
2017-09-19T06:57:06.672Z,97064.44
2017-09-19T06:59:34.664Z,97059.77
2017-09-19T07:02:02.230Z,97055.95
2017-09-19T07:04:29.787Z,97058.52
2017-09-19T07:06:57.365Z,97055.63
2017-09-19T07:09:24.911Z,97051.04
2017-09-19T07:11:52.874Z,97053.22
2017-09-19T07:14:20.414Z,97058.42
2017-09-19T07:16:48.643Z,97058.55
2017-09-19T07:19:16.233Z,97060.78
2017-09-19T07:21:43.796Z,97064.19
2017-09-19T07:24:11.378Z,97056.63
2017-09-19T07:26:38.945Z,97063.02
2017-09-19T07:29:06.539Z,97058.86
2017-09-19T07:31:34.095Z,97059.41
2017-09-19T07:34:01.690Z,97048.12
2017-09-19T07:36:29.261Z,97053.28
2017-09-19T07:38:57.155Z,97061.83
2017-09-19T07:41:24.874Z,97055.98
2017-09-19T07:43:52.439Z,97054.39
2017-09-19T07:46:20.825Z,97049.78
2017-09-19T07:48:49.108Z,97037.19
2017-09-19T07:51:16.793Z,97041.09
2017-09-19T07:53:44.438Z,97037.34
2017-09-19T07:56:12.426Z,97035.69
2017-09-19T07:58:40.066Z,97039.83
2017-09-19T08:01:07.746Z,97037.42
2017-09-19T08:03:35.385Z,97042.17
2017-09-19T08:06:03.582Z,97044.36
2017-09-19T08:08:31.550Z,97048.69
2017-09-19T08:11:00.572Z,97044.11
2017-09-19T08:13:28.246Z,97049.66
2017-09-19T08:15:55.882Z,97049.23
2017-09-19T08:18:23.607Z,97049.28
2017-09-19T08:20:51.235Z,97052.34
2017-09-19T08:23:18.802Z,97056.64
2017-09-19T08:25:46.692Z,97050.81
2017-09-19T08:28:18.618Z,97056.80
2017-09-19T08:30:46.315Z,97060.69
2017-09-19T08:33:13.883Z,97063.30
2017-09-19T08:35:41.639Z,97057.45
2017-09-19T08:38:09.234Z,97058.37
2017-09-19T08:40:36.811Z,97055.41
2017-09-19T08:43:04.652Z,97049.52
2017-09-19T08:45:32.334Z,97053.83
2017-09-19T08:47:59.903Z,97055.16
2017-09-19T08:50:27.487Z,97052.26
2017-09-19T08:52:55.051Z,97046.80
2017-09-19T08:55:22.764Z,97048.52
2017-09-19T08:57:50.347Z,97056.62
2017-09-19T09:00:18.025Z,97058.78
2017-09-19T09:02:45.940Z,97054.97
2017-09-19T09:05:13.528Z,97057.55
2017-09-19T09:07:41.225Z,97051.64
2017-09-19T09:10:08.853Z,97066.47
2017-09-19T09:12:36.886Z,97070.33
2017-09-19T09:15:04.467Z,97067.37
2017-09-19T09:17:32.034Z,97068.67
2017-09-19T09:19:59.611Z,97068.66
2017-09-19T09:22:27.181Z,97065.70
2017-09-19T09:24:54.752Z,97060.18
2017-09-19T09:27:22.330Z,97064.85
2017-09-19T09:29:50.224Z,97066.55
2017-09-19T09:32:17.804Z,97061.89
2017-09-19T09:34:45.374Z,97065.70
2017-09-19T09:37:12.967Z,97062.31
2017-09-19T09:39:40.524Z,97052.52
2017-09-19T09:42:08.108Z,97057.64
2017-09-19T09:44:35.679Z,97057.64
2017-09-19T09:47:03.294Z,97053.38
2017-09-19T09:49:30.852Z,97053.36
2017-09-19T09:51:58.628Z,97057.62
2017-09-19T09:54:26.193Z,97055.08
2017-09-19T09:56:54.158Z,97056.78
2017-09-19T09:59:21.735Z,97051.66
2017-09-19T10:01:49.299Z,97044.02
2017-09-19T10:04:16.862Z,97044.43
2017-09-19T10:06:44.444Z,97039.78
2017-09-19T10:09:12.019Z,97037.20
2017-09-19T10:11:39.567Z,97040.59
2017-09-19T10:14:07.143Z,97040.58
2017-09-19T10:16:34.698Z,97039.29
2017-09-19T10:19:02.558Z,97035.48
2017-09-19T10:21:30.127Z,97037.20
2017-09-19T10:23:57.688Z,97038.91
2017-09-19T10:26:25.272Z,97035.55
2017-09-19T10:28:53.221Z,97029.17
2017-09-19T10:31:20.814Z,97034.27
2017-09-19T10:33:48.651Z,97032.15
2017-09-19T10:36:16.280Z,97028.73
2017-09-19T10:38:44.176Z,97027.45
2017-09-19T10:41:11.732Z,97027.02
2017-09-19T10:43:39.296Z,97027.89
2017-09-19T10:46:06.892Z,97027.45
2017-09-19T10:48:34.437Z,97025.71
2017-09-19T10:51:04.702Z,97030.35
2017-09-19T10:53:32.413Z,97030.35
2017-09-19T10:55:59.969Z,97027.77
2017-09-19T10:58:27.569Z,97026.08
2017-09-19T11:00:55.138Z,97015.91
2017-09-19T11:03:22.724Z,97020.57
2017-09-19T11:05:50.691Z,97020.51
2017-09-19T11:08:18.248Z,97018.34
2017-09-19T11:10:45.826Z,97015.33
2017-09-19T11:13:13.429Z,97017.42
2017-09-19T11:15:40.985Z,97019.64
2017-09-19T11:18:09.079Z,97014.19
2017-09-19T11:20:36.695Z,97010.31
2017-09-19T11:23:04.255Z,97020.06
2017-09-19T11:25:31.875Z,97012.86
2017-09-19T11:27:59.452Z,97015.39
2017-09-19T11:30:27.348Z,97011.99
2017-09-19T11:32:55.241Z,97014.08
2017-09-19T11:35:22.792Z,97008.54
2017-09-19T11:37:50.386Z,97005.94
2017-09-19T11:40:17.970Z,97005.07
2017-09-19T11:42:45.793Z,97002.55
2017-09-19T11:45:13.334Z,97005.94
2017-09-19T11:47:40.932Z,96997.44
2017-09-19T11:50:08.568Z,97005.50
2017-09-19T11:52:36.224Z,96995.26
2017-09-19T11:55:03.961Z,96994.41
2017-09-19T11:57:31.518Z,96998.64
2017-09-19T11:59:59.408Z,96999.98
2017-09-19T12:02:27.077Z,96998.31
2017-09-19T12:04:54.658Z,96996.61
2017-09-19T12:07:22.284Z,96994.86
2017-09-19T12:09:51.001Z,96991.42
2017-09-19T12:12:18.598Z,96990.93
2017-09-19T12:14:46.156Z,96992.64
2017-09-19T12:17:14.047Z,96988.12
2017-09-19T12:19:41.629Z,96991.09
2017-09-19T12:22:09.204Z,96988.95
2017-09-19T12:24:36.830Z,96987.23
2017-09-19T12:27:04.465Z,96994.91
2017-09-19T12:29:32.067Z,96996.14
2017-09-19T12:31:59.622Z,96993.59
2017-09-19T12:34:27.591Z,96991.41
2017-09-19T12:36:55.350Z,96993.50
2017-09-19T12:39:23.084Z,96997.47
2017-09-19T12:41:50.657Z,97000.86
2017-09-19T12:44:18.226Z,96992.34
2017-09-19T12:46:45.855Z,96987.62
2017-09-19T12:49:13.398Z,96996.16
2017-09-19T12:51:41.340Z,96993.98
2017-09-19T12:54:08.945Z,96993.52
2017-09-19T12:56:36.525Z,96995.59
2017-09-19T12:59:04.122Z,96990.19
2017-09-19T13:01:31.708Z,96989.39
2017-09-19T13:03:59.365Z,96994.88
2017-09-19T13:06:26.931Z,96992.36
2017-09-19T13:08:55.929Z,96992.33
2017-09-19T13:11:23.503Z,96993.59
2017-09-19T13:13:51.608Z,96998.27
2017-09-19T13:16:19.206Z,97001.64
2017-09-19T13:18:46.776Z,96996.15
2017-09-19T13:21:14.362Z,96990.22
2017-09-19T13:23:41.933Z,96993.17
2017-09-19T13:26:09.821Z,96990.16
2017-09-19T13:28:37.370Z,96988.95
2017-09-19T13:31:17.049Z,96997.51
2017-09-19T13:33:51.211Z,96986.44
2017-09-19T13:36:19.114Z,96986.84
2017-09-19T13:38:46.921Z,96988.03
2017-09-19T13:41:14.521Z,96984.15
2017-09-19T13:43:42.121Z,96985.45
2017-09-19T13:46:10.986Z,96985.45
2017-09-19T13:48:38.962Z,96981.61
2017-09-19T13:51:06.538Z,96983.70
2017-09-19T13:53:34.579Z,96987.09
2017-09-19T13:56:02.587Z,96986.72
2017-09-19T13:58:30.131Z,96982.47
2017-09-19T14:00:57.689Z,96983.73
2017-09-19T14:03:26.373Z,96979.48
2017-09-19T14:05:54.851Z,96982.44
2017-09-19T14:08:22.454Z,96984.53
2017-09-19T14:10:50.522Z,96984.59
2017-09-19T14:13:18.117Z,96980.37
2017-09-19T14:15:45.711Z,96982.06
2017-09-19T14:18:13.276Z,96983.36
2017-09-19T14:20:40.928Z,96985.07
2017-09-19T14:23:08.920Z,96983.38
2017-09-19T14:25:36.480Z,96985.51
2017-09-19T14:28:04.075Z,96989.75
2017-09-19T14:30:31.648Z,96991.89
2017-09-19T14:32:59.220Z,96982.95
2017-09-19T14:35:27.310Z,96988.03
2017-09-19T14:37:54.932Z,96986.80
2017-09-19T14:40:22.504Z,96991.05
2017-09-19T14:42:50.592Z,96983.78
2017-09-19T14:45:18.161Z,96982.53
2017-09-19T14:47:45.764Z,96976.61
2017-09-19T14:50:13.351Z,96981.30
2017-09-19T14:52:40.957Z,96979.58
2017-09-19T14:55:09.018Z,96979.59
2017-09-19T14:57:36.593Z,96980.07
2017-09-19T15:00:04.167Z,96977.11
2017-09-19T15:02:31.765Z,96979.20
2017-09-19T15:04:59.414Z,96982.17
2017-09-19T15:07:27.438Z,96984.77
2017-09-19T15:09:55.049Z,96983.07
2017-09-19T15:12:22.627Z,96988.24
2017-09-19T15:14:50.246Z,96989.95
2017-09-19T15:17:17.812Z,96988.24
2017-09-19T15:19:45.431Z,96995.03
2017-09-19T15:22:12.980Z,96998.87
2017-09-19T15:24:40.864Z,97002.70
2017-09-19T15:27:08.430Z,97005.69
2017-09-19T15:29:35.986Z,97012.09
2017-09-19T15:32:03.563Z,97010.39
2017-09-19T15:34:32.442Z,97018.92
2017-09-19T15:37:00.412Z,97017.23
2017-09-19T15:39:28.116Z,97019.81
2017-09-19T15:41:55.690Z,97022.78
2017-09-19T15:44:23.575Z,97027.45
2017-09-19T15:46:51.334Z,97027.05
2017-09-19T15:49:19.216Z,97026.19
2017-09-19T15:51:46.775Z,97025.77
2017-09-19T15:54:14.353Z,97038.95
2017-09-19T15:56:41.944Z,97025.75
2017-09-19T15:59:09.689Z,97034.68
2017-09-19T16:01:37.822Z,97027.87
2017-09-19T16:04:05.403Z,97022.81
2017-09-19T16:06:32.987Z,97032.98
2017-09-19T16:09:00.588Z,97026.64
2017-09-19T16:11:28.165Z,97027.47
2017-09-19T16:13:56.140Z,97024.94
2017-09-19T16:16:23.714Z,97033.42
2017-09-19T16:18:51.429Z,97032.13
2017-09-19T16:21:19.013Z,97033.84
2017-09-19T16:23:46.561Z,97040.20
2017-09-19T16:26:14.458Z,97040.62
2017-09-19T16:28:42.017Z,97037.23
2017-09-19T16:31:09.633Z,97040.20
2017-09-19T16:33:37.306Z,97042.73
2017-09-19T16:36:04.910Z,97045.31
2017-09-19T16:38:32.506Z,97041.06
2017-09-19T16:41:00.110Z,97045.70
2017-09-19T16:43:27.973Z,97056.73
2017-09-19T16:45:55.627Z,97050.78
2017-09-19T16:48:23.210Z,97050.78
2017-09-19T16:50:50.801Z,97053.34
2017-09-19T16:53:18.413Z,97058.37
2017-09-19T16:55:46.624Z,97058.34
2017-09-19T16:58:14.206Z,97058.78
2017-09-19T17:00:41.774Z,97068.52
2017-09-19T17:03:09.546Z,97065.53
2017-09-19T17:05:37.210Z,97073.59
2017-09-19T17:08:05.278Z,97077.00
2017-09-19T17:10:32.864Z,97082.05
2017-09-19T17:13:01.213Z,97082.91
2017-09-19T17:15:28.794Z,97090.55
2017-09-19T17:17:56.371Z,97090.13
2017-09-19T17:20:24.023Z,97092.63
2017-09-19T17:22:52.025Z,97098.56
2017-09-19T17:25:19.938Z,97094.73
2017-09-19T17:27:47.593Z,97097.28
2017-09-19T17:30:15.312Z,97102.78
2017-09-19T17:32:42.910Z,97101.94
2017-09-19T17:35:10.499Z,97109.11
2017-09-19T17:37:39.474Z,97106.13
2017-09-19T17:40:07.163Z,97108.23
2017-09-19T17:42:34.733Z,97103.98
2017-09-19T17:45:02.337Z,97115.44
2017-09-19T17:47:29.899Z,97113.71
2017-09-19T17:49:57.864Z,97112.84
2017-09-19T17:52:25.435Z,97115.36
2017-09-19T17:54:53.012Z,97119.18
2017-09-19T17:57:20.630Z,97123.02
2017-09-19T17:59:48.219Z,97122.56
2017-09-19T18:02:16.178Z,97129.77
2017-09-19T18:04:43.914Z,97123.39
2017-09-19T18:07:11.480Z,97138.22
2017-09-19T18:09:39.098Z,97134.81
2017-09-19T18:12:06.810Z,97142.01
2017-09-19T18:14:34.405Z,97147.52
2017-09-19T18:17:02.090Z,97148.77
2017-09-19T18:19:29.676Z,97155.11
2017-09-19T18:21:57.685Z,97155.52
2017-09-19T18:24:25.307Z,97157.61
2017-09-19T18:26:53.056Z,97165.19
2017-09-19T18:29:20.995Z,97162.23
2017-09-19T18:31:48.586Z,97161.34
2017-09-19T18:34:16.179Z,97164.72
2017-09-19T18:36:44.133Z,97168.48
2017-09-19T18:39:11.833Z,97162.10
2017-09-19T18:41:39.567Z,97165.91
2017-09-19T18:44:07.238Z,97161.66
2017-09-19T18:46:34.847Z,97166.33
2017-09-19T18:49:02.953Z,97168.00
2017-09-19T18:51:30.780Z,97177.30
2017-09-19T18:53:58.514Z,97181.08
2017-09-19T18:56:26.465Z,97180.25
2017-09-19T18:58:54.879Z,97178.95
2017-09-19T19:01:22.730Z,97178.52
2017-09-19T19:03:50.603Z,97183.58
2017-09-19T19:06:18.888Z,97186.93
2017-09-19T19:08:46.541Z,97185.66
2017-09-19T19:11:14.410Z,97184.38
2017-09-19T19:13:42.273Z,97186.00
2017-09-19T19:16:10.139Z,97190.19
2017-09-19T19:18:37.918Z,97191.00
2017-09-19T19:21:05.769Z,97194.78
2017-09-19T19:23:34.150Z,97194.73
2017-09-19T19:26:02.118Z,97192.14
2017-09-19T19:28:30.336Z,97195.96
2017-09-19T19:30:58.273Z,97202.72
2017-09-19T19:33:26.038Z,97206.09
2017-09-19T19:35:54.106Z,97196.36
2017-09-19T19:38:21.954Z,97208.62
2017-09-19T19:40:49.719Z,97212.44
2017-09-19T19:43:17.645Z,97212.02
2017-09-19T19:45:45.266Z,97210.70
2017-09-19T19:48:13.161Z,97208.99
2017-09-19T19:50:40.790Z,97211.53
2017-09-19T19:53:08.854Z,97216.60
2017-09-19T19:55:36.644Z,97212.35
2017-09-19T19:58:04.331Z,97216.12
2017-09-19T20:00:32.298Z,97220.38
2017-09-19T20:02:59.907Z,97219.06
2017-09-19T20:05:27.546Z,97221.58
2017-09-19T20:07:55.189Z,97234.73
2017-09-19T20:10:22.806Z,97227.50
2017-09-19T20:12:51.387Z,97228.31
2017-09-19T20:15:19.104Z,97231.67
2017-09-19T20:17:46.970Z,97231.19
2017-09-19T20:20:14.636Z,97229.87
2017-09-19T20:22:42.224Z,97236.52
2017-09-19T20:25:09.838Z,97235.64
2017-09-19T20:27:37.446Z,97232.27
2017-09-19T20:30:05.232Z,97238.57
2017-09-19T20:32:32.908Z,97243.25
2017-09-19T20:35:01.027Z,97247.09
2017-09-19T20:37:28.610Z,97250.05
2017-09-19T20:39:56.211Z,97249.59
2017-09-19T20:42:23.820Z,97247.90
2017-09-19T20:44:51.383Z,97251.27
2017-09-19T20:47:19.136Z,97254.23
2017-09-19T20:49:46.706Z,97252.95
2017-09-19T20:52:14.709Z,97248.28
2017-09-19T20:54:42.298Z,97253.80
2017-09-19T20:57:09.858Z,97251.63
2017-09-19T20:59:37.455Z,97251.23
2017-09-19T21:02:05.160Z,97251.19
2017-09-19T21:04:38.245Z,97257.08
2017-09-19T21:07:11.469Z,97259.63
2017-09-19T21:09:44.859Z,97266.80
2017-09-19T21:12:17.966Z,97262.13
2017-09-19T21:14:51.140Z,97260.42
2017-09-19T21:17:24.408Z,97260.39
2017-09-19T21:19:53.913Z,97261.23
2017-09-19T21:22:29.259Z,97259.52
2017-09-19T21:24:58.140Z,97261.17
2017-09-19T21:27:25.736Z,97262.00
2017-09-19T21:29:53.304Z,97255.61
2017-09-19T21:32:21.130Z,97255.55
2017-09-19T21:34:48.792Z,97260.19
2017-09-19T21:37:16.388Z,97262.27
2017-09-19T21:39:44.013Z,97263.14
2017-09-19T21:42:11.602Z,97261.38
2017-09-19T21:44:39.465Z,97262.20
2017-09-19T21:47:08.307Z,97259.21
2017-09-19T21:49:35.872Z,97265.16
2017-09-19T21:52:03.470Z,97263.84
2017-09-19T21:54:31.247Z,97265.09
2017-09-19T21:56:59.185Z,97265.86
2017-09-19T21:59:26.863Z,97262.93
2017-09-19T22:01:54.445Z,97265.48
2017-09-19T22:04:22.192Z,97258.30
2017-09-19T22:06:49.777Z,97264.23
2017-09-19T22:09:17.621Z,97258.75
2017-09-19T22:11:45.192Z,97259.58
2017-09-19T22:14:12.765Z,97257.89
2017-09-19T22:16:40.356Z,97255.78
2017-09-19T22:19:07.932Z,97262.55
2017-09-19T22:21:35.808Z,97258.70
2017-09-19T22:24:03.403Z,97260.83
2017-09-19T22:26:30.958Z,97262.08
2017-09-19T22:28:58.512Z,97264.17
2017-09-19T22:31:26.094Z,97261.63
2017-09-19T22:33:53.948Z,97259.08
2017-09-19T22:36:21.690Z,97258.18
2017-09-19T22:38:49.261Z,97253.92
2017-09-19T22:41:16.883Z,97259.86
2017-09-19T22:43:45.943Z,97252.66
2017-09-19T22:46:13.963Z,97255.21
2017-09-19T22:48:41.545Z,97255.23
2017-09-19T22:51:09.128Z,97251.00
2017-09-19T22:53:36.749Z,97251.81
2017-09-19T22:56:04.553Z,97256.87
2017-09-19T22:58:32.507Z,97259.44
2017-09-19T23:01:00.170Z,97258.99
2017-09-19T23:03:27.722Z,97258.57
2017-09-19T23:05:55.329Z,97259.84
2017-09-19T23:08:22.929Z,97263.21
2017-09-19T23:10:50.898Z,97264.48
2017-09-19T23:13:18.450Z,97266.17
2017-09-19T23:15:46.031Z,97259.45
2017-09-19T23:18:13.605Z,97268.75
2017-09-19T23:20:41.136Z,97263.25
2017-09-19T23:23:09.001Z,97266.66
2017-09-19T23:25:36.549Z,97270.03
2017-09-19T23:28:04.146Z,97270.92
2017-09-19T23:30:31.803Z,97274.30
2017-09-19T23:32:59.382Z,97274.28
2017-09-19T23:35:27.295Z,97267.89
2017-09-19T23:37:54.840Z,97267.88
2017-09-19T23:40:22.429Z,97270.48
2017-09-19T23:42:50.023Z,97267.52
2017-09-19T23:45:18.199Z,97269.66
2017-09-19T23:47:46.299Z,97262.48
2017-09-19T23:50:13.876Z,97263.31
2017-09-19T23:52:41.468Z,97268.38
2017-09-19T23:55:09.231Z,97261.61
2017-09-19T23:57:36.823Z,97265.41
